Time;durP1;ratioP1;P1;durP2;ratioP2;P2;SDS_P1;SDS_P2;PMS_P1;PMS_P2;Temp;Humidity;BMP_temperature;BMP_pressure;BME280_temperature;BME280_humidity;BME280_pressure;Samples;Min_cycle;Max_cycle;Signal;HPM_P1;HPM_P2
2023/09/24 00:02:14;;;;;;;8.23;3.28;;;;;;;;;;5133861;28;20039;-76
2023/09/24 00:04:42;;;;;;;10.38;3.15;;;;;;;;;;5133322;28;20447;-77
2023/09/24 00:07:08;;;;;;;7.43;2.90;;;;;;;;;;5132153;28;20047;-76
2023/09/24 00:09:34;;;;;;;9.32;3.17;;;;;;;;;;5136903;27;20235;-77
2023/09/24 00:12:04;;;;;;;7.05;3.00;;;;;;;;;;5132233;28;20039;-76
2023/09/24 00:14:33;;;;;;;7.47;3.10;;;;;;;;;;5126862;28;20436;-76
2023/09/24 00:17:00;;;;;;;6.97;2.90;;;;;;;;;;5133465;28;20039;-75
2023/09/24 00:19:26;;;;;;;9.63;3.40;;;;;;;;;;5140863;27;20490;-76
2023/09/24 00:21:52;;;;;;;7.22;2.85;;;;;;;;;;5134965;27;20348;-76
2023/09/24 00:24:18;;;;;;;7.10;3.30;;;;;;;;;;5127094;28;20054;-76
2023/09/24 00:26:45;;;;;;;10.07;3.10;;;;;;;;;;5096048;28;20050;-76
2023/09/24 00:29:11;;;;;;;7.90;3.00;;;;;;;;;;5146764;27;20043;-76
2023/09/24 00:31:37;;;;;;;8.65;3.10;;;;;;;;;;5115837;27;20043;-76
2023/09/24 00:34:04;;;;;;;7.63;3.13;;;;;;;;;;5109468;27;20108;-76
2023/09/24 00:36:30;;;;;;;6.35;3.28;;;;;;;;;;5115373;27;20112;-76
2023/09/24 00:38:56;;;;;;;8.35;3.60;;;;;;;;;;5135288;27;20398;-75
2023/09/24 00:41:22;;;;;;;9.80;3.38;;;;;;;;;;5141391;27;20047;-76
2023/09/24 00:43:48;;;;;;;9.25;3.88;;;;;;;;;;5142920;27;20049;-75
2023/09/24 00:46:16;;;;;;;10.32;3.38;;;;;;;;;;5114207;28;20110;-76
2023/09/24 00:48:43;;;;;;;8.30;3.55;;;;;;;;;;5130345;27;20058;-76
2023/09/24 00:51:18;;;;;;;10.80;3.33;;;;;;;;;;5120072;27;20046;-76
2023/09/24 00:53:46;;;;;;;10.07;4.18;;;;;;;;;;5133101;27;20062;-76
2023/09/24 00:56:12;;;;;;;10.20;3.67;;;;;;;;;;5156888;27;20076;-75
2023/09/24 00:58:39;;;;;;;7.20;3.53;;;;;;;;;;5130612;27;20372;-76
2023/09/24 01:01:06;;;;;;;9.10;3.25;;;;;;;;;;5117622;27;20184;-76
2023/09/24 01:03:32;;;;;;;8.20;3.78;;;;;;;;;;5143043;27;20121;-76
2023/09/24 01:05:59;;;;;;;9.05;3.63;;;;;;;;;;5156150;27;20035;-76
2023/09/24 01:08:28;;;;;;;7.18;3.40;;;;;;;;;;5156953;27;20045;-77
2023/09/24 01:10:57;;;;;;;9.05;3.83;;;;;;;;;;5135393;27;20047;-77
2023/09/24 01:13:23;;;;;;;8.95;3.75;;;;;;;;;;5122687;27;20164;-77
2023/09/24 01:15:52;;;;;;;9.65;3.95;;;;;;;;;;5147207;27;20471;-77
2023/09/24 01:18:19;;;;;;;6.57;3.65;;;;;;;;;;5135791;27;20049;-77
2023/09/24 01:20:45;;;;;;;11.85;4.40;;;;;;;;;;5117623;27;20057;-77
2023/09/24 01:23:13;;;;;;;7.57;3.70;;;;;;;;;;5119328;27;20051;-77
2023/09/24 01:25:44;;;;;;;11.27;4.05;;;;;;;;;;5138403;27;20073;-77
2023/09/24 01:28:11;;;;;;;7.60;4.03;;;;;;;;;;5122746;27;20419;-77
2023/09/24 01:30:38;;;;;;;6.95;3.60;;;;;;;;;;5137045;27;20063;-77
2023/09/24 01:33:05;;;;;;;6.72;3.75;;;;;;;;;;5137528;27;20503;-77
2023/09/24 01:35:33;;;;;;;7.95;4.30;;;;;;;;;;5156037;27;20080;-77
2023/09/24 01:38:03;;;;;;;8.75;4.20;;;;;;;;;;5156632;27;20099;-77
2023/09/24 01:40:30;;;;;;;9.80;4.28;;;;;;;;;;5119330;27;20042;-76
2023/09/24 01:43:00;;;;;;;9.38;3.80;;;;;;;;;;5155677;27;20047;-77
2023/09/24 01:45:28;;;;;;;11.00;4.35;;;;;;;;;;5135513;27;20043;-77
2023/09/24 01:47:55;;;;;;;13.15;4.47;;;;;;;;;;5107462;27;20034;-76
2023/09/24 01:50:26;;;;;;;8.43;3.90;;;;;;;;;;5155944;27;20047;-75
2023/09/24 01:52:52;;;;;;;11.88;3.90;;;;;;;;;;5156004;27;20057;-75
2023/09/24 01:55:19;;;;;;;11.30;4.35;;;;;;;;;;5116831;27;20035;-76
2023/09/24 01:57:45;;;;;;;9.52;4.18;;;;;;;;;;5134921;27;20054;-76
2023/09/24 02:00:13;;;;;;;8.35;3.67;;;;;;;;;;5134806;27;20057;-74
2023/09/24 02:02:40;;;;;;;8.38;3.72;;;;;;;;;;5135033;27;20050;-76
2023/09/24 02:05:09;;;;;;;6.18;3.33;;;;;;;;;;5133937;27;20042;-75
2023/09/24 02:07:37;;;;;;;10.02;3.95;;;;;;;;;;5127946;27;20043;-75
2023/09/24 02:10:05;;;;;;;10.25;3.78;;;;;;;;;;5141989;27;20038;-75
2023/09/24 02:12:38;;;;;;;7.68;3.67;;;;;;;;;;5120162;27;20419;-76
2023/09/24 02:15:11;;;;;;;9.50;3.45;;;;;;;;;;5136210;27;20436;-76
2023/09/24 02:17:41;;;;;;;7.97;3.47;;;;;;;;;;5135495;27;20051;-76
2023/09/24 02:20:31;;;;;;;12.65;4.07;;;;;;;;;;5134731;27;20039;-75
2023/09/24 02:22:58;;;;;;;9.98;3.67;;;;;;;;;;5116652;27;20043;-76
2023/09/24 02:25:28;;;;;;;8.68;3.40;;;;;;;;;;5140785;27;20122;-75
2023/09/24 02:27:55;;;;;;;7.22;3.88;;;;;;;;;;5113796;27;20050;-75
2023/09/24 02:30:23;;;;;;;8.65;3.92;;;;;;;;;;5142586;27;20042;-76
2023/09/24 02:32:49;;;;;;;10.77;3.90;;;;;;;;;;5119179;27;20491;-75
2023/09/24 02:35:16;;;;;;;10.02;3.97;;;;;;;;;;5120616;27;20122;-76
2023/09/24 02:37:44;;;;;;;10.43;4.03;;;;;;;;;;5134869;27;20058;-76
2023/09/24 02:40:22;;;;;;;10.73;3.90;;;;;;;;;;5141381;27;20035;-76
2023/09/24 02:42:50;;;;;;;13.48;4.00;;;;;;;;;;5137374;27;20122;-75
2023/09/24 02:45:16;;;;;;;6.93;4.13;;;;;;;;;;5136484;27;20087;-75
2023/09/24 02:47:44;;;;;;;8.10;3.90;;;;;;;;;;5154569;27;20122;-76
2023/09/24 02:50:13;;;;;;;7.28;3.78;;;;;;;;;;5136765;27;20058;-77
2023/09/24 02:52:40;;;;;;;8.05;4.47;;;;;;;;;;5160295;27;20042;-75
2023/09/24 02:55:07;;;;;;;6.72;3.90;;;;;;;;;;5158051;27;20038;-75
2023/09/24 02:57:33;;;;;;;6.90;4.43;;;;;;;;;;5155477;27;20061;-75
2023/09/24 02:59:59;;;;;;;9.20;3.97;;;;;;;;;;5154898;27;20095;-76
2023/09/24 03:02:28;;;;;;;9.80;4.80;;;;;;;;;;5137020;27;20043;-76
2023/09/24 03:04:55;;;;;;;9.95;4.18;;;;;;;;;;5135218;27;20119;-75
2023/09/24 03:07:21;;;;;;;8.70;4.40;;;;;;;;;;5134647;27;20058;-76
2023/09/24 03:09:49;;;;;;;9.63;4.32;;;;;;;;;;5133840;27;20395;-75
2023/09/24 03:12:15;;;;;;;10.02;5.20;;;;;;;;;;5099015;27;20047;-76
2023/09/24 03:14:41;;;;;;;8.52;4.60;;;;;;;;;;5114617;27;20434;-76
2023/09/24 03:17:07;;;;;;;9.38;4.70;;;;;;;;;;5134206;27;20102;-75
2023/09/24 03:19:33;;;;;;;8.15;4.97;;;;;;;;;;5134178;27;20443;-75
2023/09/24 03:22:00;;;;;;;7.38;4.90;;;;;;;;;;5115811;27;20047;-76
2023/09/24 03:24:26;;;;;;;8.25;5.38;;;;;;;;;;5133599;27;20043;-76
2023/09/24 03:26:52;;;;;;;10.32;5.65;;;;;;;;;;5094836;28;20044;-76
2023/09/24 03:29:19;;;;;;;10.30;5.40;;;;;;;;;;5113260;28;20083;-76
2023/09/24 03:31:45;;;;;;;11.15;6.05;;;;;;;;;;5094945;28;20499;-77
2023/09/24 03:34:11;;;;;;;10.80;6.13;;;;;;;;;;5136004;27;20222;-77
2023/09/24 03:36:37;;;;;;;8.27;5.50;;;;;;;;;;5135781;27;20062;-76
2023/09/24 03:39:04;;;;;;;9.07;5.88;;;;;;;;;;5154594;27;20379;-76
2023/09/24 03:41:30;;;;;;;8.98;5.93;;;;;;;;;;5135716;27;20476;-76
2023/09/24 03:43:56;;;;;;;8.50;6.10;;;;;;;;;;5154247;27;20440;-76
2023/09/24 03:46:22;;;;;;;10.10;5.82;;;;;;;;;;5135434;27;20107;-77
2023/09/24 03:48:49;;;;;;;9.77;6.32;;;;;;;;;;5154622;27;20043;-77
2023/09/24 03:51:15;;;;;;;9.77;6.70;;;;;;;;;;5135547;27;20095;-77
2023/09/24 03:53:41;;;;;;;9.35;6.32;;;;;;;;;;5135397;27;20050;-77
2023/09/24 03:56:07;;;;;;;9.07;6.65;;;;;;;;;;5154226;27;20043;-77
2023/09/24 03:58:33;;;;;;;9.63;7.03;;;;;;;;;;5135624;27;20099;-77
2023/09/24 04:01:08;;;;;;;12.27;7.53;;;;;;;;;;5134906;27;20046;-76
2023/09/24 04:03:34;;;;;;;13.10;7.15;;;;;;;;;;5154340;27;20121;-76
2023/09/24 04:06:00;;;;;;;10.25;7.22;;;;;;;;;;5153417;27;20356;-76
2023/09/24 04:08:26;;;;;;;9.32;7.07;;;;;;;;;;5134363;27;20052;-77
2023/09/24 04:10:52;;;;;;;11.48;6.72;;;;;;;;;;5153639;27;20074;-77
2023/09/24 04:13:18;;;;;;;10.23;7.13;;;;;;;;;;5118227;27;20073;-76
2023/09/24 04:15:44;;;;;;;11.75;7.05;;;;;;;;;;5135221;27;20035;-76
2023/09/24 04:18:10;;;;;;;10.43;7.50;;;;;;;;;;5116921;27;20555;-77
2023/09/24 04:20:37;;;;;;;9.95;6.68;;;;;;;;;;5117168;27;20389;-77
2023/09/24 04:23:03;;;;;;;9.55;7.00;;;;;;;;;;5150568;27;20039;-77
2023/09/24 04:25:29;;;;;;;11.48;7.47;;;;;;;;;;5121173;27;20126;-76
2023/09/24 04:27:55;;;;;;;11.68;7.05;;;;;;;;;;5117495;27;20035;-76
2023/09/24 04:30:24;;;;;;;10.75;7.28;;;;;;;;;;5130652;27;20396;-76
2023/09/24 04:32:54;;;;;;;10.30;6.93;;;;;;;;;;5115452;28;20127;-76
2023/09/24 04:35:21;;;;;;;10.40;6.95;;;;;;;;;;5093677;28;20052;-77
2023/09/24 04:37:51;;;;;;;13.10;7.32;;;;;;;;;;5096299;28;20055;-77
2023/09/24 04:40:17;;;;;;;10.05;7.38;;;;;;;;;;5095775;28;20161;-77
2023/09/24 04:42:45;;;;;;;11.63;7.55;;;;;;;;;;5096055;28;20082;-77
2023/09/24 04:45:11;;;;;;;12.68;7.75;;;;;;;;;;5095663;28;20127;-77
2023/09/24 04:47:37;;;;;;;10.52;8.02;;;;;;;;;;5096153;28;20410;-74
2023/09/24 04:50:04;;;;;;;8.93;7.10;;;;;;;;;;5094291;28;20090;-74
2023/09/24 04:52:30;;;;;;;11.13;7.35;;;;;;;;;;5109451;28;20095;-75
2023/09/24 04:54:56;;;;;;;10.70;7.22;;;;;;;;;;5114263;28;20040;-75
2023/09/24 04:57:22;;;;;;;10.90;7.55;;;;;;;;;;5097392;28;20488;-75
2023/09/24 04:59:53;;;;;;;11.40;7.40;;;;;;;;;;5097315;28;20055;-75
2023/09/24 05:02:20;;;;;;;9.25;6.68;;;;;;;;;;5116172;28;20087;-75
2023/09/24 05:04:48;;;;;;;11.23;7.20;;;;;;;;;;5114072;28;20054;-76
2023/09/24 05:07:14;;;;;;;10.82;6.75;;;;;;;;;;5097859;28;20052;-76
2023/09/24 05:09:40;;;;;;;10.52;7.43;;;;;;;;;;5115484;28;20092;-75
2023/09/24 05:12:07;;;;;;;11.52;7.47;;;;;;;;;;5115666;28;20123;-75
2023/09/24 05:14:33;;;;;;;11.50;6.90;;;;;;;;;;5115348;28;20039;-76
2023/09/24 05:17:00;;;;;;;10.05;6.90;;;;;;;;;;5097562;28;20051;-76
2023/09/24 05:19:26;;;;;;;11.82;7.32;;;;;;;;;;5114795;28;20043;-77
2023/09/24 05:21:52;;;;;;;11.75;6.70;;;;;;;;;;5114150;28;20089;-77
2023/09/24 05:24:18;;;;;;;13.05;6.93;;;;;;;;;;5113903;28;20043;-77
2023/09/24 05:26:45;;;;;;;10.10;6.53;;;;;;;;;;5100330;27;20039;-77
2023/09/24 05:29:11;;;;;;;10.27;7.13;;;;;;;;;;5114410;28;20042;-76
2023/09/24 05:31:38;;;;;;;11.45;6.65;;;;;;;;;;5115507;28;20394;-77
2023/09/24 05:34:07;;;;;;;13.63;7.30;;;;;;;;;;5114035;28;20115;-77
2023/09/24 05:36:33;;;;;;;13.05;6.80;;;;;;;;;;5135069;27;20058;-77
2023/09/24 05:38:59;;;;;;;11.00;6.10;;;;;;;;;;5135631;27;20104;-76
2023/09/24 05:41:25;;;;;;;10.50;6.28;;;;;;;;;;5117247;27;20053;-77
2023/09/24 05:43:54;;;;;;;13.15;6.53;;;;;;;;;;5135689;27;20046;-77
2023/09/24 05:46:20;;;;;;;10.50;6.88;;;;;;;;;;5117312;27;20043;-77
2023/09/24 05:48:46;;;;;;;9.93;6.68;;;;;;;;;;5135872;27;20039;-77
2023/09/24 05:51:12;;;;;;;10.35;5.90;;;;;;;;;;5135441;27;20047;-77
2023/09/24 05:53:38;;;;;;;10.88;5.97;;;;;;;;;;5120925;27;20038;-77
2023/09/24 05:56:04;;;;;;;12.27;6.63;;;;;;;;;;5137607;27;20493;-78
2023/09/24 05:58:30;;;;;;;9.40;6.40;;;;;;;;;;5151366;27;20057;-76
2023/09/24 06:00:57;;;;;;;10.18;6.10;;;;;;;;;;5136758;27;20055;-76
2023/09/24 06:03:23;;;;;;;12.15;6.32;;;;;;;;;;5121511;27;20045;-75
2023/09/24 06:05:49;;;;;;;11.25;6.20;;;;;;;;;;5119164;27;20070;-76
2023/09/24 06:08:15;;;;;;;11.55;6.45;;;;;;;;;;5117410;27;20043;-76
2023/09/24 06:10:45;;;;;;;11.32;6.28;;;;;;;;;;5135176;27;20126;-76
2023/09/24 06:13:13;;;;;;;12.50;6.10;;;;;;;;;;5117025;27;20043;-76
2023/09/24 06:15:39;;;;;;;12.40;6.80;;;;;;;;;;5135408;27;20095;-75
2023/09/24 06:18:06;;;;;;;9.75;6.50;;;;;;;;;;5116827;27;20078;-75
2023/09/24 06:20:32;;;;;;;10.68;6.32;;;;;;;;;;5116524;27;20050;-75
2023/09/24 06:22:58;;;;;;;10.55;6.20;;;;;;;;;;5135321;27;20039;-75
2023/09/24 06:25:24;;;;;;;10.05;6.15;;;;;;;;;;5095640;28;20145;-76
2023/09/24 06:27:50;;;;;;;10.80;6.35;;;;;;;;;;5122194;27;20039;-75
2023/09/24 06:30:16;;;;;;;10.40;5.90;;;;;;;;;;5155631;27;20095;-75
2023/09/24 06:32:42;;;;;;;11.55;6.05;;;;;;;;;;5137106;27;20043;-76
2023/09/24 06:35:09;;;;;;;11.95;5.57;;;;;;;;;;5153518;27;20126;-76
2023/09/24 06:37:35;;;;;;;12.18;5.82;;;;;;;;;;5153924;27;20087;-75
2023/09/24 06:40:01;;;;;;;9.90;6.00;;;;;;;;;;5154176;27;20099;-76
2023/09/24 06:42:27;;;;;;;11.23;6.10;;;;;;;;;;5155698;27;20043;-77
2023/09/24 06:44:53;;;;;;;11.68;6.15;;;;;;;;;;5155023;27;20509;-76
2023/09/24 06:47:19;;;;;;;10.18;5.28;;;;;;;;;;5155887;27;20391;-77
2023/09/24 06:49:49;;;;;;;9.68;5.57;;;;;;;;;;5155144;27;20035;-75
2023/09/24 06:52:15;;;;;;;10.27;5.18;;;;;;;;;;5137194;27;20260;-76
2023/09/24 06:54:41;;;;;;;7.65;4.80;;;;;;;;;;5119545;27;20034;-75
2023/09/24 06:57:08;;;;;;;8.05;5.07;;;;;;;;;;5136870;27;20043;-75
2023/09/24 06:59:34;;;;;;;11.07;4.97;;;;;;;;;;5136711;27;20053;-75
2023/09/24 07:02:00;;;;;;;8.07;5.15;;;;;;;;;;5137072;27;20047;-76
2023/09/24 07:04:26;;;;;;;8.38;4.82;;;;;;;;;;5136385;27;20057;-75
2023/09/24 07:06:52;;;;;;;9.65;4.97;;;;;;;;;;5134412;27;20053;-75
2023/09/24 07:09:18;;;;;;;7.97;5.00;;;;;;;;;;5154881;27;20126;-76
2023/09/24 07:11:45;;;;;;;10.13;5.45;;;;;;;;;;5136447;27;20057;-76
2023/09/24 07:14:11;;;;;;;10.45;5.60;;;;;;;;;;5142800;27;20043;-74
2023/09/24 07:16:38;;;;;;;11.50;5.60;;;;;;;;;;5114452;27;20046;-76
2023/09/24 07:19:07;;;;;;;10.38;5.45;;;;;;;;;;5130145;27;20399;-76
2023/09/24 07:21:34;;;;;;;11.05;5.63;;;;;;;;;;5133789;27;20050;-76
2023/09/24 07:24:00;;;;;;;10.20;5.75;;;;;;;;;;5138375;27;20087;-77
2023/09/24 07:26:26;;;;;;;10.23;5.88;;;;;;;;;;5127692;27;20043;-76
2023/09/24 07:28:53;;;;;;;7.45;5.13;;;;;;;;;;5133916;27;20133;-76
2023/09/24 07:31:21;;;;;;;7.82;4.80;;;;;;;;;;5133590;27;20062;-76
2023/09/24 07:33:52;;;;;;;8.45;4.97;;;;;;;;;;5131635;27;20047;-76
2023/09/24 07:36:18;;;;;;;10.80;5.13;;;;;;;;;;5132353;27;20084;-75
2023/09/24 07:38:45;;;;;;;9.13;5.07;;;;;;;;;;5120410;27;20051;-77
2023/09/24 07:41:11;;;;;;;9.50;5.38;;;;;;;;;;5146171;27;20117;-76
2023/09/24 07:43:37;;;;;;;11.93;5.28;;;;;;;;;;5135881;27;20110;-75
2023/09/24 07:46:04;;;;;;;10.35;5.20;;;;;;;;;;5154048;27;20130;-75
2023/09/24 07:48:30;;;;;;;9.27;5.28;;;;;;;;;;5152924;27;20390;-77
2023/09/24 07:50:57;;;;;;;9.82;5.47;;;;;;;;;;5132752;27;20035;-76
2023/09/24 07:53:23;;;;;;;9.57;5.28;;;;;;;;;;5133327;27;20039;-74
2023/09/24 07:56:06;;;;;;;9.88;4.97;;;;;;;;;;5132736;27;20126;-75
2023/09/24 07:58:32;;;;;;;9.48;5.22;;;;;;;;;;5115047;28;20122;-75
2023/09/24 08:01:03;;;;;;;10.07;4.97;;;;;;;;;;5114453;28;20069;-75
2023/09/24 08:03:29;;;;;;;10.70;5.28;;;;;;;;;;5115329;28;20186;-75
2023/09/24 08:05:55;;;;;;;11.52;4.88;;;;;;;;;;5132830;28;20039;-75
2023/09/24 08:08:22;;;;;;;10.85;5.18;;;;;;;;;;5133333;28;20070;-74
2023/09/24 08:10:48;;;;;;;9.02;4.70;;;;;;;;;;5114351;28;20047;-77
2023/09/24 08:13:14;;;;;;;10.00;4.68;;;;;;;;;;5133177;28;20042;-77
2023/09/24 08:15:40;;;;;;;8.40;4.50;;;;;;;;;;5133241;28;20043;-77
2023/09/24 08:18:11;;;;;;;9.20;5.00;;;;;;;;;;5134374;27;20392;-77
2023/09/24 08:20:37;;;;;;;8.52;4.55;;;;;;;;;;5132839;28;20118;-77
2023/09/24 08:23:04;;;;;;;8.45;4.30;;;;;;;;;;5114541;28;20043;-77
2023/09/24 08:25:30;;;;;;;10.18;4.45;;;;;;;;;;5125101;28;20055;-77
2023/09/24 08:27:57;;;;;;;9.05;4.30;;;;;;;;;;5119573;27;20039;-79
2023/09/24 08:30:23;;;;;;;10.40;4.30;;;;;;;;;;5132600;28;20050;-78
2023/09/24 08:32:49;;;;;;;6.57;3.78;;;;;;;;;;5124441;27;20038;-78
2023/09/24 08:35:15;;;;;;;7.35;3.80;;;;;;;;;;5129938;28;20059;-75
2023/09/24 08:37:42;;;;;;;8.23;3.80;;;;;;;;;;5114619;28;20047;-76
2023/09/24 08:40:12;;;;;;;7.78;3.83;;;;;;;;;;5113207;28;20131;-76
2023/09/24 08:42:38;;;;;;;6.13;3.53;;;;;;;;;;5111344;28;20047;-76
2023/09/24 08:45:14;;;;;;;7.47;3.28;;;;;;;;;;5112141;28;20421;-76
2023/09/24 08:47:41;;;;;;;6.93;3.50;;;;;;;;;;5112507;28;20058;-77
2023/09/24 08:50:08;;;;;;;8.45;3.78;;;;;;;;;;5111905;28;20040;-77
2023/09/24 08:52:41;;;;;;;7.35;3.38;;;;;;;;;;5111179;28;20043;-77
2023/09/24 08:55:09;;;;;;;7.32;3.30;;;;;;;;;;5110477;28;20080;-78
2023/09/24 08:57:36;;;;;;;8.43;3.60;;;;;;;;;;5093355;28;20086;-77
2023/09/24 09:00:05;;;;;;;6.97;3.30;;;;;;;;;;5093497;28;20036;-78
2023/09/24 09:02:31;;;;;;;5.68;2.92;;;;;;;;;;5112192;28;20039;-78
2023/09/24 09:04:58;;;;;;;6.88;3.17;;;;;;;;;;5117729;28;20130;-78
2023/09/24 09:07:24;;;;;;;6.95;2.95;;;;;;;;;;5114163;28;20042;-77
2023/09/24 09:09:56;;;;;;;8.82;3.10;;;;;;;;;;5104648;28;20044;-76
2023/09/24 09:12:23;;;;;;;9.48;3.42;;;;;;;;;;5110123;27;20453;-77
2023/09/24 09:14:50;;;;;;;5.82;2.92;;;;;;;;;;5138167;27;20035;-77
2023/09/24 09:17:16;;;;;;;5.97;2.60;;;;;;;;;;5135320;27;20051;-78
2023/09/24 09:19:52;;;;;;;7.03;2.75;;;;;;;;;;5119264;27;20079;-76
2023/09/24 09:22:20;;;;;;;6.22;2.80;;;;;;;;;;5115097;27;20309;-77
2023/09/24 09:24:47;;;;;;;8.98;3.10;;;;;;;;;;5114825;27;20079;-76
2023/09/24 09:27:13;;;;;;;8.60;2.95;;;;;;;;;;5094717;27;20078;-77
2023/09/24 09:29:39;;;;;;;7.90;3.10;;;;;;;;;;5119941;27;20028;-76
2023/09/24 09:32:05;;;;;;;8.52;3.15;;;;;;;;;;5118042;27;20054;-83
2023/09/24 09:34:32;;;;;;;6.78;2.90;;;;;;;;;;5118252;27;20073;-83
2023/09/24 09:37:17;;;;;;;6.32;2.92;;;;;;;;;;5098773;27;20046;-83
2023/09/24 09:39:44;;;;;;;8.93;3.25;;;;;;;;;;5100067;27;20047;-79
2023/09/24 09:42:11;;;;;;;6.53;2.80;;;;;;;;;;5138226;27;20043;-83
2023/09/24 09:44:38;;;;;;;8.13;2.70;;;;;;;;;;5137632;27;20050;-85
2023/09/24 09:47:05;;;;;;;8.15;2.90;;;;;;;;;;5121181;27;20057;-83
2023/09/24 09:49:32;;;;;;;7.15;2.80;;;;;;;;;;5119158;27;20395;-84
2023/09/24 09:52:03;;;;;;;6.82;2.92;;;;;;;;;;5118970;27;20047;-85
2023/09/24 09:54:35;;;;;;;6.22;2.72;;;;;;;;;;5121700;27;20043;-85
2023/09/24 09:57:04;;;;;;;7.40;2.75;;;;;;;;;;5135065;27;20502;-83
2023/09/24 09:59:34;;;;;;;7.82;2.60;;;;;;;;;;5101457;27;20039;-82
2023/09/24 10:02:01;;;;;;;7.82;2.58;;;;;;;;;;5116744;27;20080;-82
2023/09/24 10:04:30;;;;;;;6.63;2.60;;;;;;;;;;5119650;27;20043;-81
2023/09/24 10:06:56;;;;;;;6.18;2.42;;;;;;;;;;5116165;27;20083;-88
2023/09/24 10:09:29;;;;;;;6.68;2.80;;;;;;;;;;5117380;27;20054;-83
2023/09/24 10:11:56;;;;;;;6.30;2.53;;;;;;;;;;5102229;27;20043;-84
2023/09/24 10:14:36;;;;;;;7.28;2.70;;;;;;;;;;5116607;27;20081;-84
2023/09/24 10:17:23;;;;;;;6.35;2.55;;;;;;;;;;5120624;27;20491;-84
2023/09/24 10:20:01;;;;;;;5.72;2.40;;;;;;;;;;5079394;28;20035;-83
2023/09/24 10:22:32;;;;;;;8.98;2.85;;;;;;;;;;5115988;27;20122;-83
2023/09/24 10:24:58;;;;;;;10.43;2.42;;;;;;;;;;5098954;27;20051;-83
2023/09/24 10:27:25;;;;;;;4.90;2.33;;;;;;;;;;5116771;27;20046;-83
2023/09/24 10:29:52;;;;;;;5.35;2.55;;;;;;;;;;5114539;27;20091;-78
2023/09/24 10:32:21;;;;;;;6.57;2.30;;;;;;;;;;5107598;27;20443;-77
2023/09/24 10:34:59;;;;;;;5.90;2.17;;;;;;;;;;5122042;27;20075;-78
2023/09/24 10:37:29;;;;;;;6.00;2.55;;;;;;;;;;5120305;27;20096;-77
2023/09/24 10:39:59;;;;;;;6.63;2.47;;;;;;;;;;5123131;27;20039;-78
2023/09/24 10:42:26;;;;;;;5.82;2.33;;;;;;;;;;5123578;27;20086;-77
2023/09/24 10:45:18;;;;;;;5.55;2.35;;;;;;;;;;5121874;27;20039;-77
2023/09/24 10:47:45;;;;;;;6.82;2.35;;;;;;;;;;5099686;27;20089;-77
2023/09/24 10:50:12;;;;;;;7.28;2.45;;;;;;;;;;5121794;27;20394;-77
2023/09/24 10:52:49;;;;;;;6.93;2.47;;;;;;;;;;5120914;27;20040;-77
2023/09/24 10:55:15;;;;;;;6.15;2.33;;;;;;;;;;5107436;27;20046;-76
2023/09/24 10:57:45;;;;;;;6.85;2.28;;;;;;;;;;5119604;27;20465;-76
2023/09/24 11:00:18;;;;;;;4.90;2.53;;;;;;;;;;5127772;27;20127;-79
2023/09/24 11:02:44;;;;;;;5.90;2.10;;;;;;;;;;5131167;27;20414;-79
2023/09/24 11:05:11;;;;;;;6.32;2.50;;;;;;;;;;5112436;27;20130;-78
2023/09/24 11:07:37;;;;;;;4.25;2.20;;;;;;;;;;5131274;27;20035;-78
2023/09/24 11:10:04;;;;;;;9.40;2.20;;;;;;;;;;5112219;27;20070;-78
2023/09/24 11:12:30;;;;;;;6.28;2.15;;;;;;;;;;5115323;27;20072;-79
2023/09/24 11:14:56;;;;;;;9.57;2.08;;;;;;;;;;5131243;27;20092;-78
2023/09/24 11:17:23;;;;;;;4.90;2.17;;;;;;;;;;5112738;27;20043;-78
2023/09/24 11:19:50;;;;;;;4.97;2.10;;;;;;;;;;5130344;27;20047;-78
2023/09/24 11:22:19;;;;;;;4.78;2.10;;;;;;;;;;5129615;27;20047;-78
2023/09/24 11:24:45;;;;;;;5.43;2.10;;;;;;;;;;5142426;27;20071;-80
2023/09/24 11:27:11;;;;;;;5.75;2.38;;;;;;;;;;5150328;27;20047;-76
2023/09/24 11:29:38;;;;;;;5.72;2.28;;;;;;;;;;5151269;27;20047;-83
2023/09/24 11:32:04;;;;;;;6.25;2.50;;;;;;;;;;5087199;27;20051;-83
2023/09/24 11:34:31;;;;;;;6.45;2.20;;;;;;;;;;5113357;28;20043;-82
2023/09/24 11:36:57;;;;;;;5.47;2.00;;;;;;;;;;5117875;27;20496;-82
2023/09/24 11:39:23;;;;;;;7.57;2.20;;;;;;;;;;5114038;27;20536;-83
2023/09/24 11:41:50;;;;;;;4.78;1.95;;;;;;;;;;5122101;27;20087;-82
2023/09/24 11:44:16;;;;;;;4.32;1.90;;;;;;;;;;5089868;27;20092;-81
2023/09/24 11:46:43;;;;;;;5.63;2.10;;;;;;;;;;5122055;27;20475;-80
2023/09/24 11:49:10;;;;;;;6.25;2.30;;;;;;;;;;5123868;27;20126;-81
2023/09/24 11:51:36;;;;;;;10.65;2.83;;;;;;;;;;5127354;27;20361;-81
2023/09/24 11:54:03;;;;;;;6.60;2.20;;;;;;;;;;5106621;27;20042;-80
2023/09/24 11:56:29;;;;;;;5.45;2.13;;;;;;;;;;5133420;27;20074;-79
2023/09/24 11:58:55;;;;;;;5.97;2.30;;;;;;;;;;5133618;27;20406;-78
2023/09/24 12:01:21;;;;;;;6.00;2.25;;;;;;;;;;5132896;28;20090;-77
2023/09/24 12:03:49;;;;;;;4.97;2.17;;;;;;;;;;5081141;28;20112;-78
2023/09/24 12:06:15;;;;;;;5.35;2.10;;;;;;;;;;5131134;28;20059;-78
2023/09/24 12:08:42;;;;;;;4.65;2.03;;;;;;;;;;5114873;28;20047;-78
2023/09/24 12:11:08;;;;;;;4.53;1.90;;;;;;;;;;5132991;28;20119;-78
2023/09/24 12:13:37;;;;;;;4.68;2.10;;;;;;;;;;5133422;28;20176;-79
2023/09/24 12:16:03;;;;;;;5.75;2.28;;;;;;;;;;5132808;28;20073;-78
2023/09/24 12:18:29;;;;;;;7.00;2.30;;;;;;;;;;5133347;28;20043;-78
2023/09/24 12:20:57;;;;;;;4.65;2.03;;;;;;;;;;5132367;28;20044;-78
2023/09/24 12:23:24;;;;;;;4.97;2.00;;;;;;;;;;5132641;28;20047;-78
2023/09/24 12:25:50;;;;;;;5.97;2.20;;;;;;;;;;5104204;28;20075;-78
2023/09/24 12:28:17;;;;;;;4.22;1.85;;;;;;;;;;5094518;28;20044;-78
2023/09/24 12:30:44;;;;;;;6.20;2.10;;;;;;;;;;5093840;28;20093;-78
2023/09/24 12:33:10;;;;;;;4.28;2.08;;;;;;;;;;5112430;28;20050;-78
2023/09/24 12:35:42;;;;;;;6.03;1.88;;;;;;;;;;5112061;28;20134;-78
2023/09/24 12:38:09;;;;;;;4.72;1.98;;;;;;;;;;5111935;28;20059;-78
2023/09/24 12:40:35;;;;;;;4.03;1.95;;;;;;;;;;5114293;28;20522;-79
2023/09/24 12:43:01;;;;;;;4.35;1.90;;;;;;;;;;5132932;28;20039;-79
2023/09/24 12:45:27;;;;;;;4.82;2.00;;;;;;;;;;5114119;28;20126;-78
2023/09/24 12:47:53;;;;;;;5.53;2.30;;;;;;;;;;5118003;27;20051;-78
2023/09/24 12:50:19;;;;;;;4.57;1.85;;;;;;;;;;5117590;27;20039;-79
2023/09/24 12:52:45;;;;;;;6.03;1.90;;;;;;;;;;5117130;27;20082;-78
2023/09/24 12:55:14;;;;;;;4.35;1.98;;;;;;;;;;5117853;27;20073;-78
2023/09/24 12:57:40;;;;;;;4.93;2.00;;;;;;;;;;5100986;27;20043;-78
2023/09/24 13:00:11;;;;;;;6.80;2.20;;;;;;;;;;5117825;27;20122;-79
2023/09/24 13:02:38;;;;;;;5.05;1.73;;;;;;;;;;5136567;27;20080;-78
2023/09/24 13:05:06;;;;;;;3.92;1.80;;;;;;;;;;5136280;27;20095;-79
2023/09/24 13:07:32;;;;;;;5.03;2.15;;;;;;;;;;5118634;27;20491;-79
2023/09/24 13:09:58;;;;;;;3.85;1.85;;;;;;;;;;5117660;27;20043;-79
2023/09/24 13:12:25;;;;;;;6.95;2.10;;;;;;;;;;5117771;27;20050;-79
2023/09/24 13:14:51;;;;;;;5.10;1.85;;;;;;;;;;5117759;27;20391;-78
2023/09/24 13:17:17;;;;;;;4.78;2.05;;;;;;;;;;5117957;27;20043;-78
2023/09/24 13:19:43;;;;;;;4.85;1.85;;;;;;;;;;5136383;27;20054;-79
2023/09/24 13:22:09;;;;;;;4.90;1.92;;;;;;;;;;5117980;27;20047;-79
2023/09/24 13:24:39;;;;;;;5.28;1.90;;;;;;;;;;5115025;27;20126;-79
2023/09/24 13:27:05;;;;;;;4.93;1.77;;;;;;;;;;5135617;27;20054;-79
2023/09/24 13:29:31;;;;;;;4.40;1.83;;;;;;;;;;5136009;27;20043;-79
2023/09/24 13:31:57;;;;;;;5.88;2.10;;;;;;;;;;5117984;27;20441;-79
2023/09/24 13:34:23;;;;;;;5.82;2.10;;;;;;;;;;5135648;27;20053;-79
2023/09/24 13:36:49;;;;;;;4.85;2.10;;;;;;;;;;5099400;27;20098;-79
2023/09/24 13:39:16;;;;;;;4.25;2.03;;;;;;;;;;5134785;27;20134;-79
2023/09/24 13:41:42;;;;;;;5.35;1.92;;;;;;;;;;5116732;27;20039;-79
2023/09/24 13:44:09;;;;;;;6.47;1.80;;;;;;;;;;5117568;27;20391;-80
2023/09/24 13:46:35;;;;;;;4.82;2.05;;;;;;;;;;5116230;27;20079;-80
2023/09/24 13:49:04;;;;;;;6.35;2.00;;;;;;;;;;5134693;27;20392;-80
2023/09/24 13:51:30;;;;;;;6.03;2.00;;;;;;;;;;5117221;27;20641;-80
2023/09/24 13:53:56;;;;;;;4.45;1.80;;;;;;;;;;5135651;27;20043;-78
2023/09/24 13:56:22;;;;;;;4.95;2.22;;;;;;;;;;5117158;27;20554;-79
2023/09/24 13:58:49;;;;;;;3.53;1.83;;;;;;;;;;5116543;27;20455;-79
2023/09/24 14:01:15;;;;;;;4.07;1.73;;;;;;;;;;5135000;27;20039;-79
2023/09/24 14:03:41;;;;;;;5.47;1.90;;;;;;;;;;5117116;27;20051;-79
2023/09/24 14:06:07;;;;;;;5.00;2.05;;;;;;;;;;5135418;27;20096;-79
2023/09/24 14:14:06;;;;;;;4.55;2.05;;;;;;;;;;5135123;27;20325;-79
2023/09/24 14:16:32;;;;;;;5.60;2.10;;;;;;;;;;5135233;27;20050;-79
2023/09/24 14:18:58;;;;;;;4.60;1.95;;;;;;;;;;5135113;27;20120;-80
2023/09/24 14:21:24;;;;;;;5.50;2.00;;;;;;;;;;5135108;27;20042;-80
2023/09/24 14:23:50;;;;;;;5.97;2.30;;;;;;;;;;5135126;27;20473;-80
2023/09/24 14:26:16;;;;;;;4.38;1.80;;;;;;;;;;5115782;27;20039;-79
2023/09/24 14:28:42;;;;;;;6.15;2.10;;;;;;;;;;5134985;27;20039;-79
2023/09/24 14:31:08;;;;;;;3.92;1.80;;;;;;;;;;5134807;27;20125;-80
2023/09/24 14:33:35;;;;;;;5.00;2.00;;;;;;;;;;5116904;27;20043;-79
2023/09/24 14:36:02;;;;;;;4.30;1.90;;;;;;;;;;5115859;27;20054;-79
2023/09/24 14:38:29;;;;;;;5.07;2.03;;;;;;;;;;5135023;27;20055;-79
2023/09/24 14:40:56;;;;;;;4.15;1.90;;;;;;;;;;5116264;27;20395;-78
2023/09/24 14:43:22;;;;;;;4.75;2.00;;;;;;;;;;5116332;27;20051;-79
2023/09/24 14:45:58;;;;;;;6.60;2.03;;;;;;;;;;5134358;27;20415;-78